createdAt,value
2023-04-12T00:00:15.429Z,24.30
2023-04-12T00:01:15.323Z,24.28
2023-04-12T00:02:15.386Z,24.28
2023-04-12T00:03:15.370Z,24.27
2023-04-12T00:04:16.374Z,24.27
2023-04-12T00:05:15.309Z,24.27
2023-04-12T00:06:15.240Z,24.28
2023-04-12T00:07:15.222Z,24.30
2023-04-12T00:08:15.214Z,24.30
2023-04-12T00:09:15.218Z,24.28
2023-04-12T00:10:15.190Z,24.27
2023-04-12T00:11:15.181Z,24.28
2023-04-12T00:12:15.185Z,24.27
2023-04-12T00:13:15.139Z,24.28
2023-04-12T00:14:15.130Z,24.27
2023-04-12T00:15:15.109Z,24.25
2023-04-12T00:16:15.159Z,24.27
2023-04-12T00:17:15.081Z,24.27
2023-04-12T00:18:15.078Z,24.27
2023-04-12T00:19:15.050Z,24.25
2023-04-12T00:20:15.025Z,24.25
2023-04-12T00:21:15.019Z,24.27
2023-04-12T00:22:14.979Z,24.24
2023-04-12T00:23:14.905Z,24.25
2023-04-12T00:24:14.886Z,24.27
2023-04-12T00:25:14.881Z,24.27
2023-04-12T00:26:14.850Z,24.24
2023-04-12T00:27:14.844Z,24.28
2023-04-12T00:28:14.797Z,24.27
2023-04-12T00:29:14.765Z,24.25
2023-04-12T00:30:14.755Z,24.27
2023-04-12T00:31:15.265Z,24.21
2023-04-12T00:32:14.711Z,24.27
2023-04-12T00:33:14.685Z,24.25
2023-04-12T00:34:14.682Z,24.25
2023-04-12T00:35:14.657Z,24.25
2023-04-12T00:36:14.707Z,24.25
2023-04-12T00:37:14.629Z,24.25
2023-04-12T00:38:14.619Z,24.24
2023-04-12T00:39:14.597Z,24.25
2023-04-12T00:40:14.584Z,24.24
2023-04-12T00:41:14.601Z,24.24
2023-04-12T00:42:14.547Z,24.25
2023-04-12T00:43:14.543Z,24.24
2023-04-12T00:44:14.512Z,24.24
2023-04-12T00:45:15.255Z,24.23
2023-04-12T00:46:14.537Z,24.25
2023-04-12T00:47:14.467Z,24.23
2023-04-12T00:48:14.465Z,24.24
2023-04-12T00:49:14.456Z,24.23
2023-04-12T00:50:14.431Z,24.23
2023-04-12T00:51:14.415Z,24.24
2023-04-12T00:52:14.403Z,24.25
2023-04-12T00:53:14.445Z,24.25
2023-04-12T00:54:14.378Z,24.23
2023-04-12T00:55:14.349Z,24.21
2023-04-12T00:56:14.366Z,24.23
2023-04-12T00:57:14.316Z,24.24
2023-04-12T00:58:14.317Z,24.23
2023-04-12T00:59:14.275Z,24.23
2023-04-12T01:00:14.255Z,24.23
2023-04-12T01:01:14.258Z,24.24
2023-04-12T01:02:14.231Z,24.23
2023-04-12T01:03:14.344Z,24.21
2023-04-12T01:04:14.227Z,24.24
2023-04-12T01:05:14.155Z,24.23
2023-04-12T01:06:14.144Z,24.24
2023-04-12T01:07:14.126Z,24.21
2023-04-12T01:08:14.103Z,24.23
2023-04-12T01:09:14.110Z,24.23
2023-04-12T01:10:14.055Z,24.23
2023-04-12T01:11:14.054Z,24.21
2023-04-12T01:12:14.034Z,24.21
2023-04-12T01:13:14.025Z,24.23
2023-04-12T01:14:13.987Z,24.20
2023-04-12T01:15:13.963Z,24.21
2023-04-12T01:16:13.977Z,24.21
2023-04-12T01:17:13.917Z,24.21
2023-04-12T01:18:13.905Z,24.23
2023-04-12T01:19:13.885Z,24.20
2023-04-12T01:20:13.925Z,24.20
2023-04-12T01:21:13.845Z,24.21
2023-04-12T01:22:13.822Z,24.21
2023-04-12T01:23:13.789Z,24.21
2023-04-12T01:24:13.798Z,24.21
2023-04-12T01:25:14.737Z,24.20
2023-04-12T01:26:14.877Z,24.18
2023-04-12T01:27:13.741Z,24.18
2023-04-12T01:28:13.711Z,24.21
2023-04-12T01:29:13.701Z,24.18
2023-04-12T01:30:13.696Z,24.23
2023-04-12T01:31:13.680Z,24.20
2023-04-12T01:32:13.660Z,24.21
2023-04-12T01:33:14.255Z,24.21
2023-04-12T01:34:13.620Z,24.21
2023-04-12T01:35:13.596Z,24.20
2023-04-12T01:36:13.656Z,24.21
2023-04-12T01:37:13.560Z,24.20
2023-04-12T01:38:13.550Z,24.21
2023-04-12T01:39:13.523Z,24.23
2023-04-12T01:40:13.486Z,24.20
2023-04-12T01:41:13.474Z,24.23
2023-04-12T01:42:13.444Z,24.20
2023-04-12T01:43:13.433Z,24.21
2023-04-12T01:44:13.431Z,24.20
2023-04-12T01:45:13.429Z,24.20
2023-04-12T01:46:13.496Z,24.17
2023-04-12T01:47:13.400Z,24.20
2023-04-12T01:48:13.682Z,24.21
2023-04-12T01:49:13.431Z,24.18
2023-04-12T01:50:13.343Z,24.18
2023-04-12T01:51:13.301Z,24.20
2023-04-12T01:52:13.285Z,24.20
2023-04-12T01:53:13.262Z,24.18
2023-04-12T01:54:13.227Z,24.20
2023-04-12T01:55:13.215Z,24.20
2023-04-12T01:56:13.189Z,24.18
2023-04-12T01:57:13.147Z,24.18
2023-04-12T01:58:13.185Z,24.18
2023-04-12T01:59:13.156Z,24.20
2023-04-12T02:00:13.032Z,24.18
2023-04-12T02:01:13.012Z,24.18
2023-04-12T02:02:13.905Z,24.20
2023-04-12T02:03:13.175Z,24.18
2023-04-12T02:04:12.967Z,24.18
2023-04-12T02:05:15.760Z,24.18
2023-04-12T02:06:12.884Z,24.18
2023-04-12T02:07:12.940Z,24.18
2023-04-12T02:08:12.764Z,24.18
2023-04-12T02:09:12.718Z,24.20
2023-04-12T02:10:12.669Z,24.18
2023-04-12T02:11:12.622Z,24.20
2023-04-12T02:12:12.564Z,24.18
2023-04-12T02:13:12.524Z,24.17
2023-04-12T02:14:13.256Z,24.20
2023-04-12T02:15:12.439Z,24.20
2023-04-12T02:16:12.775Z,24.17
2023-04-12T02:17:12.324Z,24.20
2023-04-12T02:18:12.318Z,24.18
2023-04-12T02:19:12.244Z,24.18
2023-04-12T02:20:12.178Z,24.18
2023-04-12T02:21:12.191Z,24.17
2023-04-12T02:22:12.088Z,24.18
2023-04-12T02:23:12.013Z,24.17
2023-04-12T02:24:11.964Z,24.20
2023-04-12T02:25:11.942Z,24.17
2023-04-12T02:26:11.860Z,24.17
2023-04-12T02:27:11.804Z,24.16
2023-04-12T02:28:11.747Z,24.20
2023-04-12T02:29:11.701Z,24.16
2023-04-12T02:30:11.644Z,24.18
2023-04-12T02:31:11.605Z,24.17
2023-04-12T02:32:11.537Z,24.18
2023-04-12T02:33:12.317Z,24.17
2023-04-12T02:34:11.432Z,24.17
2023-04-12T02:35:11.373Z,24.18
2023-04-12T02:36:11.328Z,24.14
2023-04-12T02:37:11.277Z,24.17
2023-04-12T02:38:11.215Z,24.17
2023-04-12T02:39:11.164Z,24.17
2023-04-12T02:40:11.120Z,24.16
2023-04-12T02:41:11.053Z,24.17
2023-04-12T02:42:11.007Z,24.18
2023-04-12T02:43:10.951Z,24.17
2023-04-12T02:44:10.903Z,24.16
2023-04-12T02:45:10.853Z,24.14
2023-04-12T02:46:10.854Z,24.17
2023-04-12T02:47:10.762Z,24.17
2023-04-12T02:48:10.720Z,24.17
2023-04-12T02:49:11.347Z,24.16
2023-04-12T02:50:10.603Z,24.17
2023-04-12T02:51:10.553Z,24.16
2023-04-12T02:52:10.520Z,24.16
2023-04-12T02:53:10.457Z,24.16
2023-04-12T02:54:10.416Z,24.17
2023-04-12T02:55:10.355Z,24.16
2023-04-12T02:56:10.297Z,24.18
2023-04-12T02:57:10.259Z,24.17
2023-04-12T02:58:10.209Z,24.17
2023-04-12T02:59:10.154Z,24.18
2023-04-12T03:00:10.103Z,24.18
2023-04-12T03:01:10.070Z,24.18
2023-04-12T03:02:10.074Z,24.20
2023-04-12T03:03:10.013Z,24.21
2023-04-12T03:04:09.997Z,24.21
2023-04-12T03:05:09.821Z,24.23
2023-04-12T03:06:09.841Z,24.25
2023-04-12T03:07:09.714Z,24.24
2023-04-12T03:08:09.655Z,24.27
2023-04-12T03:09:09.610Z,24.27
2023-04-12T03:10:09.542Z,24.30
2023-04-12T03:11:09.490Z,24.32
2023-04-12T03:12:09.437Z,24.31
2023-04-12T03:13:09.385Z,24.35
2023-04-12T03:14:09.333Z,24.37
2023-04-12T03:15:09.276Z,24.38
2023-04-12T03:16:09.245Z,24.41
2023-04-12T03:17:09.165Z,24.41
2023-04-12T03:18:09.149Z,24.44
2023-04-12T03:19:09.036Z,24.47
2023-04-12T03:20:08.987Z,24.47
2023-04-12T03:21:08.942Z,24.48
2023-04-12T03:22:08.899Z,24.48
2023-04-12T03:23:08.895Z,24.54
2023-04-12T03:24:08.886Z,24.52
2023-04-12T03:25:08.909Z,24.55
2023-04-12T03:26:08.856Z,24.55
2023-04-12T03:27:08.928Z,24.56
2023-04-12T03:28:08.825Z,24.58
2023-04-12T03:29:10.718Z,24.56
2023-04-12T03:30:08.787Z,24.56
2023-04-12T03:31:08.853Z,24.58
2023-04-12T03:32:08.739Z,24.61
2023-04-12T03:33:08.746Z,24.56
2023-04-12T03:34:08.707Z,24.62
2023-04-12T03:35:08.709Z,24.62
2023-04-12T03:36:08.711Z,24.64
2023-04-12T03:37:08.754Z,24.64
2023-04-12T03:38:08.717Z,24.65
2023-04-12T03:39:08.694Z,24.64
2023-04-12T03:40:08.680Z,24.65
2023-04-12T03:41:08.661Z,24.66
2023-04-12T03:42:13.611Z,24.66
2023-04-12T03:43:09.594Z,24.68
2023-04-12T03:44:08.533Z,24.68
2023-04-12T03:45:08.461Z,24.65
2023-04-12T03:46:08.484Z,24.68
2023-04-12T03:47:08.345Z,24.66
2023-04-12T03:48:08.375Z,24.66
2023-04-12T03:49:08.240Z,24.71
2023-04-12T03:50:11.660Z,24.71
2023-04-12T03:51:08.169Z,24.69
2023-04-12T03:52:08.098Z,24.71
2023-04-12T03:53:08.152Z,24.68
2023-04-12T03:54:08.014Z,24.71
2023-04-12T03:55:08.316Z,24.69
2023-04-12T03:56:07.923Z,24.69
2023-04-12T03:57:07.891Z,24.73
2023-04-12T03:58:07.847Z,24.72
2023-04-12T03:59:07.826Z,24.72
2023-04-12T04:00:08.309Z,24.71
2023-04-12T04:01:07.726Z,24.73
2023-04-12T04:02:07.726Z,24.75
2023-04-12T04:03:07.630Z,24.72
2023-04-12T04:04:07.740Z,24.73
2023-04-12T04:05:07.591Z,24.73
2023-04-12T04:06:07.488Z,24.73
2023-04-12T04:07:07.521Z,24.72
2023-04-12T04:08:07.392Z,24.71
2023-04-12T04:09:07.329Z,24.75
2023-04-12T04:10:07.272Z,24.73
2023-04-12T04:11:08.918Z,24.73
2023-04-12T04:12:07.796Z,24.72
2023-04-12T04:13:07.259Z,24.75
2023-04-12T04:14:07.268Z,24.75
2023-04-12T04:15:07.279Z,24.73
2023-04-12T04:16:07.324Z,24.73
2023-04-12T04:17:07.307Z,24.75
2023-04-12T04:18:07.325Z,24.75
2023-04-12T04:19:07.306Z,24.75
2023-04-12T04:20:07.357Z,24.76
2023-04-12T04:21:07.334Z,24.76
2023-04-12T04:22:07.336Z,24.75
2023-04-12T04:23:07.350Z,24.76
2023-04-12T04:24:07.361Z,24.78
2023-04-12T04:25:07.356Z,24.76
2023-04-12T04:26:07.370Z,24.78
2023-04-12T04:27:07.381Z,24.75
2023-04-12T04:28:07.388Z,24.75
2023-04-12T04:29:07.398Z,24.75
2023-04-12T04:30:07.402Z,24.75
2023-04-12T04:31:07.397Z,24.78
2023-04-12T04:32:07.456Z,24.76
2023-04-12T04:33:07.461Z,24.76
2023-04-12T04:34:07.440Z,24.76
2023-04-12T04:35:07.435Z,24.78
2023-04-12T04:36:07.441Z,24.78
2023-04-12T04:37:07.457Z,24.78
2023-04-12T04:38:07.475Z,24.75
2023-04-12T04:39:07.537Z,24.78
2023-04-12T04:40:07.470Z,24.76
2023-04-12T04:41:07.480Z,24.78
2023-04-12T04:42:07.485Z,24.78
2023-04-12T04:43:08.376Z,24.76
2023-04-12T04:44:07.496Z,24.78
2023-04-12T04:45:07.509Z,24.78
2023-04-12T04:46:07.560Z,24.79
2023-04-12T04:47:08.314Z,24.79
2023-04-12T04:48:07.549Z,24.79
2023-04-12T04:49:07.511Z,24.76
2023-04-12T04:50:07.531Z,24.76
2023-04-12T04:51:07.625Z,24.78
2023-04-12T04:52:07.636Z,24.79
2023-04-12T04:53:07.564Z,24.78
2023-04-12T04:54:07.551Z,24.78
2023-04-12T04:55:10.605Z,24.79
2023-04-12T04:56:07.499Z,24.79
2023-04-12T04:57:07.428Z,24.76
2023-04-12T04:58:07.382Z,24.78
2023-04-12T04:59:07.315Z,24.78
2023-04-12T05:00:07.259Z,24.78
2023-04-12T05:01:07.253Z,24.76
2023-04-12T05:02:07.166Z,24.75
2023-04-12T05:03:07.113Z,24.76
2023-04-12T05:04:07.063Z,24.73
2023-04-12T05:05:06.924Z,24.75
2023-04-12T05:06:06.862Z,24.73
2023-04-12T05:07:06.797Z,24.75
2023-04-12T05:08:06.830Z,24.78
2023-04-12T05:09:06.694Z,24.73
2023-04-12T05:10:07.321Z,24.75
2023-04-12T05:11:06.555Z,24.76
2023-04-12T05:12:06.492Z,24.72
2023-04-12T05:13:06.430Z,24.73
2023-04-12T05:14:06.384Z,24.73
2023-04-12T05:15:11.775Z,24.78
2023-04-12T05:16:07.249Z,24.73
2023-04-12T05:17:06.324Z,24.76
2023-04-12T05:18:06.119Z,24.73
2023-04-12T05:19:06.825Z,24.73
2023-04-12T05:20:05.984Z,24.71
2023-04-12T05:21:05.932Z,24.71
2023-04-12T05:22:05.894Z,24.72
2023-04-12T05:23:06.336Z,24.73
2023-04-12T05:24:05.807Z,24.75
2023-04-12T05:25:05.747Z,24.76
2023-04-12T05:26:05.751Z,24.76
2023-04-12T05:27:05.776Z,24.79
2023-04-12T05:28:06.409Z,24.82
2023-04-12T05:29:05.785Z,24.86
2023-04-12T05:30:05.782Z,24.87
2023-04-12T05:31:05.858Z,24.90
2023-04-12T05:32:05.771Z,24.94
2023-04-12T05:33:06.368Z,24.99
2023-04-12T05:34:05.749Z,25.00
2023-04-12T05:35:05.721Z,25.05
2023-04-12T05:36:05.771Z,25.10
2023-04-12T05:37:05.690Z,25.16
2023-04-12T05:38:05.651Z,25.19
2023-04-12T05:39:05.636Z,25.26
2023-04-12T05:40:06.341Z,25.29
2023-04-12T05:41:05.593Z,25.31
2023-04-12T05:42:05.507Z,25.34
2023-04-12T05:43:05.464Z,25.40
2023-04-12T05:44:05.401Z,25.42
2023-04-12T05:45:05.353Z,25.47
2023-04-12T05:46:05.323Z,25.51
2023-04-12T05:47:05.234Z,25.52
2023-04-12T05:48:05.228Z,25.57
2023-04-12T05:49:05.097Z,25.58
2023-04-12T05:50:06.871Z,25.61
2023-04-12T05:51:05.008Z,25.67
2023-04-12T05:52:04.950Z,25.69
2023-04-12T05:53:04.948Z,25.77
2023-04-12T05:54:04.923Z,25.78
2023-04-12T05:55:04.897Z,25.79
2023-04-12T05:56:04.902Z,25.84
2023-04-12T05:57:04.893Z,25.81
2023-04-12T05:58:04.886Z,25.89
2023-04-12T05:59:04.857Z,25.89
2023-04-12T06:00:04.866Z,25.93
2023-04-12T06:01:05.361Z,25.95
2023-04-12T06:02:04.888Z,25.96
2023-04-12T06:03:05.099Z,25.99
2023-04-12T06:04:04.928Z,26.03
2023-04-12T06:05:05.189Z,26.06
2023-04-12T06:06:04.851Z,26.05
2023-04-12T06:07:04.839Z,26.07
2023-04-12T06:08:04.837Z,26.09
2023-04-12T06:09:04.839Z,26.07
2023-04-12T06:10:04.833Z,26.09
2023-04-12T06:11:04.812Z,26.10
2023-04-12T06:12:04.800Z,26.13
2023-04-12T06:13:05.352Z,26.15
2023-04-12T06:14:04.783Z,26.12
2023-04-12T06:15:04.750Z,26.15
2023-04-12T06:16:05.358Z,26.19
2023-04-12T06:17:04.719Z,26.22
2023-04-12T06:18:04.740Z,26.23
2023-04-12T06:19:04.682Z,26.25
2023-04-12T06:20:04.650Z,26.26
2023-04-12T06:21:04.644Z,26.23
2023-04-12T06:22:04.620Z,26.22
2023-04-12T06:23:04.584Z,26.20
2023-04-12T06:24:04.558Z,26.23
2023-04-12T06:25:04.549Z,26.17
2023-04-12T06:26:04.503Z,26.15
2023-04-12T06:27:04.472Z,26.13
2023-04-12T06:28:04.556Z,26.15
2023-04-12T06:29:04.421Z,26.17
2023-04-12T06:30:05.287Z,26.17
2023-04-12T06:31:05.383Z,26.19
2023-04-12T06:32:04.310Z,26.19
2023-04-12T06:33:04.277Z,26.20
2023-04-12T06:34:04.237Z,26.20
2023-04-12T06:35:04.201Z,26.25
2023-04-12T06:36:04.200Z,26.29
2023-04-12T06:37:04.118Z,26.30
2023-04-12T06:38:04.081Z,26.33
2023-04-12T06:39:05.006Z,26.36
2023-04-12T06:40:03.919Z,26.37
2023-04-12T06:41:03.844Z,26.40
2023-04-12T06:42:03.764Z,26.39
2023-04-12T06:43:03.762Z,26.40
2023-04-12T06:44:03.612Z,26.43
2023-04-12T06:45:03.555Z,26.46
2023-04-12T06:46:04.361Z,26.47
2023-04-12T06:47:03.382Z,26.43
2023-04-12T06:48:03.323Z,26.46
2023-04-12T06:49:03.197Z,26.47
2023-04-12T06:50:03.153Z,26.51
2023-04-12T06:51:03.085Z,26.50
2023-04-12T06:52:03.060Z,26.47
2023-04-12T06:53:03.988Z,26.48
2023-04-12T06:54:02.938Z,26.50
2023-04-12T06:55:02.813Z,26.51
2023-04-12T06:56:02.717Z,26.47
2023-04-12T06:57:03.348Z,26.51
2023-04-12T06:58:02.565Z,26.54
2023-04-12T06:59:02.559Z,26.53
2023-04-12T07:00:02.470Z,26.54
2023-04-12T07:01:02.348Z,26.55
2023-04-12T07:02:02.292Z,26.54
2023-04-12T07:03:02.373Z,26.58
2023-04-12T07:04:02.196Z,26.61
2023-04-12T07:05:02.037Z,26.60
2023-04-12T07:06:10.588Z,26.61
2023-04-12T07:07:02.930Z,26.61
2023-04-12T07:08:01.834Z,26.63
2023-04-12T07:09:01.815Z,26.64
2023-04-12T07:10:01.627Z,26.65
2023-04-12T07:11:08.876Z,26.64
2023-04-12T07:12:02.468Z,26.63
2023-04-12T07:13:01.404Z,26.63
2023-04-12T07:14:01.340Z,26.64
2023-04-12T07:15:01.209Z,26.64
2023-04-12T07:16:01.184Z,26.63
2023-04-12T07:17:01.061Z,26.58
2023-04-12T07:18:01.022Z,26.60
2023-04-12T07:19:01.035Z,26.55
2023-04-12T07:20:01.823Z,26.54
2023-04-12T07:21:00.755Z,26.46
2023-04-12T07:22:00.687Z,26.39
2023-04-12T07:23:00.605Z,26.29
2023-04-12T07:24:00.533Z,26.27
2023-04-12T07:25:00.452Z,26.26
2023-04-12T07:26:00.898Z,26.27
2023-04-12T07:27:00.307Z,26.29
2023-04-12T07:28:00.233Z,26.32
2023-04-12T07:29:00.198Z,26.33
2023-04-12T07:30:00.817Z,26.36
2023-04-12T07:31:00.167Z,26.40
2023-04-12T07:32:00.886Z,26.39
2023-04-12T07:33:08.616Z,26.43
2023-04-12T07:34:01.184Z,26.44
2023-04-12T07:34:59.992Z,26.46
2023-04-12T07:35:59.915Z,26.47
2023-04-12T07:36:59.816Z,26.47
2023-04-12T07:37:59.736Z,26.26
2023-04-12T07:38:59.946Z,25.87
2023-04-12T07:39:59.665Z,25.52
2023-04-12T07:40:59.571Z,25.13
2023-04-12T07:41:59.490Z,24.83
2023-04-12T07:42:59.668Z,24.66
2023-04-12T07:43:59.396Z,24.58
2023-04-12T07:44:59.346Z,24.59
2023-04-12T07:46:01.942Z,24.64
2023-04-12T07:46:59.479Z,24.72
2023-04-12T07:47:59.443Z,24.82
2023-04-12T07:48:59.489Z,24.90
2023-04-12T07:49:59.301Z,25.02
2023-04-12T07:50:59.908Z,25.12
2023-04-12T07:51:59.184Z,25.23
2023-04-12T07:52:59.110Z,25.37
2023-04-12T07:53:59.231Z,25.44
2023-04-12T07:54:59.422Z,25.52
2023-04-12T07:55:59.929Z,25.64
2023-04-12T07:56:58.828Z,25.72
2023-04-12T07:57:58.757Z,25.81
2023-04-12T07:58:58.794Z,25.88
2023-04-12T07:59:58.586Z,25.92
2023-04-12T08:01:00.911Z,26.00
2023-04-12T08:01:59.516Z,26.05
2023-04-12T08:02:58.506Z,26.10
2023-04-12T08:03:58.668Z,26.15
2023-04-12T08:04:58.405Z,26.20
2023-04-12T08:05:58.143Z,26.27
2023-04-12T08:06:58.016Z,26.27
2023-04-12T08:07:57.955Z,26.36
2023-04-12T08:08:57.862Z,26.37
2023-04-12T08:09:57.832Z,26.32
2023-04-12T08:10:57.682Z,26.40
2023-04-12T08:11:57.616Z,26.36
2023-04-12T08:12:57.905Z,26.30
2023-04-12T08:13:57.760Z,26.26
2023-04-12T08:14:57.377Z,26.17
2023-04-12T08:15:57.312Z,26.10
2023-04-12T08:16:57.225Z,26.07
2023-04-12T08:17:57.188Z,25.99
2023-04-12T08:18:57.111Z,25.92
2023-04-12T08:19:57.086Z,25.79
2023-04-12T08:20:56.933Z,25.69
2023-04-12T08:21:56.888Z,25.60
2023-04-12T08:22:56.861Z,25.51
2023-04-12T08:23:57.017Z,25.42
2023-04-12T08:24:56.691Z,25.31
2023-04-12T08:25:56.638Z,25.26
2023-04-12T08:26:56.581Z,25.21
2023-04-12T08:27:56.532Z,25.19
2023-04-12T08:28:56.528Z,25.14
2023-04-12T08:29:56.533Z,25.19
2023-04-12T08:30:56.510Z,25.24
2023-04-12T08:31:56.467Z,25.34
2023-04-12T08:32:56.430Z,25.42
2023-04-12T08:33:56.721Z,25.48
2023-04-12T08:34:56.304Z,25.58
2023-04-12T08:35:56.951Z,25.68
2023-04-12T08:36:56.188Z,25.77
2023-04-12T08:37:56.158Z,25.84
2023-04-12T08:38:56.127Z,25.91
2023-04-12T08:39:56.140Z,25.95
2023-04-12T08:40:56.142Z,26.00
2023-04-12T08:41:56.127Z,26.06
2023-04-12T08:42:56.122Z,26.15
2023-04-12T08:43:56.391Z,26.19
2023-04-12T08:44:56.081Z,26.22
2023-04-12T08:45:56.062Z,26.27
2023-04-12T08:46:56.081Z,26.33
2023-04-12T08:47:57.996Z,26.37
2023-04-12T08:48:56.836Z,26.40
2023-04-12T08:49:56.431Z,26.43
2023-04-12T08:50:55.945Z,26.46
2023-04-12T08:51:55.916Z,26.47
2023-04-12T08:52:55.888Z,26.50
2023-04-12T08:53:55.910Z,26.51
2023-04-12T08:54:55.809Z,26.51
2023-04-12T08:55:55.759Z,26.54
2023-04-12T08:56:55.734Z,26.55
2023-04-12T08:57:56.433Z,26.60
2023-04-12T08:58:55.626Z,26.60
2023-04-12T08:59:55.548Z,26.63
2023-04-12T09:00:55.489Z,26.64
2023-04-12T09:01:55.481Z,26.68
2023-04-12T09:02:55.526Z,26.67
2023-04-12T09:03:55.570Z,26.68
2023-04-12T09:04:55.294Z,26.70
2023-04-12T09:05:55.063Z,26.75
2023-04-12T09:06:54.992Z,26.80
2023-04-12T09:07:54.926Z,26.77
2023-04-12T09:08:54.826Z,26.77
2023-04-12T09:09:55.448Z,26.77
2023-04-12T09:10:54.677Z,26.78
2023-04-12T09:11:54.584Z,26.81
2023-04-12T09:12:54.504Z,26.84
2023-04-12T09:13:54.475Z,26.80
2023-04-12T09:14:54.344Z,26.81
2023-04-12T09:15:54.278Z,26.81
2023-04-12T09:16:54.213Z,26.77
2023-04-12T09:17:54.138Z,26.77
2023-04-12T09:18:54.030Z,26.73
2023-04-12T09:19:53.955Z,26.73
2023-04-12T09:20:53.878Z,26.73
2023-04-12T09:21:53.813Z,26.73
2023-04-12T09:22:53.761Z,26.68
2023-04-12T09:23:53.656Z,26.67
2023-04-12T09:24:53.602Z,26.68
2023-04-12T09:25:53.811Z,26.67
2023-04-12T09:26:53.447Z,26.65
2023-04-12T09:27:53.402Z,26.65
2023-04-12T09:28:53.400Z,26.61
2023-04-12T09:29:53.339Z,26.60
2023-04-12T09:30:53.327Z,26.58
2023-04-12T09:31:53.325Z,26.58
2023-04-12T09:32:53.298Z,26.57
2023-04-12T09:33:53.242Z,26.54
2023-04-12T09:34:53.202Z,26.51
2023-04-12T09:35:54.007Z,26.51
2023-04-12T09:36:53.166Z,26.48
2023-04-12T09:37:53.153Z,26.51
2023-04-12T09:38:53.145Z,26.48
2023-04-12T09:39:53.124Z,26.46
2023-04-12T09:40:53.133Z,26.46
2023-04-12T09:41:53.128Z,26.43
2023-04-12T09:42:53.114Z,26.44
2023-04-12T09:43:53.097Z,26.39
2023-04-12T09:44:53.103Z,26.42
2023-04-12T09:45:53.216Z,26.40
2023-04-12T09:46:53.305Z,26.36
2023-04-12T09:47:53.253Z,26.36
2023-04-12T09:48:53.076Z,26.33
2023-04-12T09:49:53.941Z,26.33
2023-04-12T09:50:53.148Z,26.27
2023-04-12T09:51:53.038Z,26.29
2023-04-12T09:52:53.062Z,26.27
2023-04-12T09:53:53.043Z,26.27
2023-04-12T09:54:53.030Z,26.27
2023-04-12T09:55:53.018Z,26.23
2023-04-12T09:56:53.125Z,26.23
2023-04-12T09:57:52.977Z,26.23
2023-04-12T09:58:52.952Z,26.22
2023-04-12T09:59:52.914Z,26.20
2023-04-12T10:00:52.857Z,26.22
2023-04-12T10:01:52.952Z,26.20
2023-04-12T10:02:53.293Z,26.20
2023-04-12T10:03:52.951Z,26.16
2023-04-12T10:04:53.083Z,26.16
2023-04-12T10:05:52.677Z,26.16
2023-04-12T10:06:52.783Z,26.16
2023-04-12T10:07:52.609Z,26.17
2023-04-12T10:08:52.581Z,26.17
2023-04-12T10:09:52.565Z,26.16
2023-04-12T10:10:52.524Z,26.16
2023-04-12T10:11:52.495Z,26.17
2023-04-12T10:12:52.462Z,26.17
2023-04-12T10:13:52.417Z,26.17
2023-04-12T10:14:52.364Z,26.15
2023-04-12T10:15:52.416Z,26.15
2023-04-12T10:16:52.307Z,26.16
2023-04-12T10:17:52.311Z,26.13
2023-04-12T10:18:52.265Z,26.15
2023-04-12T10:19:52.238Z,26.15
2023-04-12T10:20:52.221Z,26.17
2023-04-12T10:21:52.181Z,26.13
2023-04-12T10:22:52.282Z,26.15
2023-04-12T10:23:52.110Z,26.15
2023-04-12T10:24:52.040Z,26.10
2023-04-12T10:25:53.887Z,26.10
2023-04-12T10:26:51.923Z,26.12
2023-04-12T10:27:51.892Z,26.09
2023-04-12T10:28:51.856Z,26.09
2023-04-12T10:29:51.715Z,26.09
2023-04-12T10:30:51.649Z,26.09
2023-04-12T10:31:51.663Z,26.05
2023-04-12T10:32:52.495Z,26.09
2023-04-12T10:33:51.427Z,26.07
2023-04-12T10:34:51.418Z,26.06
2023-04-12T10:35:51.337Z,26.06
2023-04-12T10:36:51.206Z,26.07
2023-04-12T10:37:51.203Z,26.07
2023-04-12T10:38:51.072Z,26.05
2023-04-12T10:39:51.053Z,26.07
2023-04-12T10:40:50.944Z,26.09
2023-04-12T10:41:50.861Z,26.05
2023-04-12T10:42:50.821Z,26.06
2023-04-12T10:43:50.767Z,26.03
2023-04-12T10:44:50.681Z,26.05
2023-04-12T10:45:50.597Z,26.03
2023-04-12T10:46:50.603Z,26.06
2023-04-12T10:47:50.623Z,26.05
2023-04-12T10:48:50.433Z,26.05
2023-04-12T10:49:50.352Z,26.02
2023-04-12T10:50:50.307Z,26.03
2023-04-12T10:51:50.208Z,26.05
2023-04-12T10:52:50.138Z,26.03
2023-04-12T10:53:50.123Z,26.03
2023-04-12T10:54:50.007Z,26.02
2023-04-12T10:55:49.955Z,26.05
2023-04-12T10:56:49.871Z,26.02
2023-04-12T10:57:49.907Z,26.05
2023-04-12T10:58:49.820Z,26.02
2023-04-12T10:59:49.668Z,26.05
2023-04-12T11:00:49.654Z,26.00
2023-04-12T11:01:49.627Z,26.03
2023-04-12T11:02:49.578Z,26.03
2023-04-12T11:03:49.473Z,26.03
2023-04-12T11:04:49.318Z,26.05
2023-04-12T11:05:49.220Z,26.05
2023-04-12T11:06:49.157Z,26.03
2023-04-12T11:07:49.088Z,26.03
2023-04-12T11:08:49.057Z,26.05
2023-04-12T11:09:48.969Z,26.06
2023-04-12T11:10:48.894Z,26.09
2023-04-12T11:11:48.789Z,26.07
2023-04-12T11:12:48.721Z,26.10
2023-04-12T11:13:48.657Z,26.06
2023-04-12T11:14:49.277Z,26.06
2023-04-12T11:15:48.551Z,26.07
2023-04-12T11:16:48.598Z,26.07
2023-04-12T11:17:48.439Z,26.06
2023-04-12T11:18:48.313Z,26.09
2023-04-12T11:19:48.221Z,26.06
2023-04-12T11:20:48.145Z,26.05
2023-04-12T11:21:48.114Z,26.05
2023-04-12T11:22:48.001Z,26.03
2023-04-12T11:23:47.929Z,26.03
2023-04-12T11:24:47.858Z,26.02
2023-04-12T11:25:47.793Z,26.02
2023-04-12T11:26:48.545Z,26.00
2023-04-12T11:27:47.648Z,26.02
2023-04-12T11:28:47.583Z,25.99
2023-04-12T11:29:47.524Z,26.00
2023-04-12T11:30:47.427Z,25.99
2023-04-12T11:31:47.377Z,25.99
2023-04-12T11:32:47.389Z,25.99
2023-04-12T11:33:47.220Z,25.98
2023-04-12T11:34:47.155Z,25.99
2023-04-12T11:35:47.095Z,25.99
2023-04-12T11:36:47.042Z,25.99
2023-04-12T11:37:46.988Z,25.96
2023-04-12T11:38:46.957Z,25.96
2023-04-12T11:39:46.876Z,25.96
2023-04-12T11:40:46.824Z,25.95
2023-04-12T11:41:46.782Z,25.93
2023-04-12T11:42:46.693Z,25.98
2023-04-12T11:43:46.641Z,25.93
2023-04-12T11:45:46.511Z,25.95
2023-04-12T11:46:46.418Z,25.95
2023-04-12T11:47:46.430Z,25.93
2023-04-12T11:48:46.265Z,25.95
2023-04-12T11:49:46.190Z,25.92
2023-04-12T11:51:48.227Z,25.95
2023-04-12T11:52:45.976Z,25.92
2023-04-12T11:53:45.885Z,25.96
2023-04-12T11:54:46.499Z,25.93
2023-04-12T11:55:45.731Z,25.93
2023-04-12T11:56:45.673Z,25.93
2023-04-12T11:57:45.591Z,25.95
2023-04-12T11:58:45.521Z,25.91
2023-04-12T11:59:45.448Z,25.92
2023-04-12T12:00:45.374Z,25.91
2023-04-12T12:01:45.351Z,25.93
2023-04-12T12:02:55.832Z,25.93
2023-04-12T12:03:46.359Z,25.92
2023-04-12T12:04:45.251Z,25.92
2023-04-12T12:05:45.133Z,25.92
2023-04-12T12:06:45.084Z,25.92
2023-04-12T12:07:44.876Z,25.93
2023-04-12T12:08:44.804Z,25.91
2023-04-12T12:09:44.730Z,25.91
2023-04-12T12:10:59.974Z,25.89
2023-04-12T12:11:45.585Z,25.89
2023-04-12T12:12:44.501Z,25.91
2023-04-12T12:13:44.445Z,25.92
2023-04-12T12:14:44.454Z,25.89
2023-04-12T12:15:44.325Z,25.88
2023-04-12T12:16:44.297Z,25.89
2023-04-12T12:17:44.190Z,25.89
2023-04-12T12:18:44.101Z,25.91
2023-04-12T12:19:44.088Z,25.89
2023-04-12T12:20:43.938Z,25.91
2023-04-12T12:21:43.866Z,25.89
2023-04-12T12:22:43.781Z,25.88
2023-04-12T12:23:43.716Z,25.91
2023-04-12T12:24:43.806Z,25.89
2023-04-12T12:25:43.556Z,25.87
2023-04-12T12:26:43.509Z,25.87
2023-04-12T12:27:43.535Z,25.87
2023-04-12T12:28:43.346Z,25.85
2023-04-12T12:29:43.286Z,25.85
2023-04-12T12:30:43.197Z,25.85
2023-04-12T12:31:43.378Z,25.85
2023-04-12T12:32:43.067Z,25.84
2023-04-12T12:34:00.229Z,25.87
2023-04-12T12:34:43.912Z,25.84
2023-04-12T12:35:42.840Z,25.82
2023-04-12T12:36:42.754Z,25.81
2023-04-12T12:37:42.693Z,25.82
2023-04-12T12:38:42.610Z,25.82
2023-04-12T12:39:42.548Z,25.81
2023-04-12T12:40:42.459Z,25.81
2023-04-12T12:41:42.401Z,25.82
2023-04-12T12:42:42.322Z,25.79
2023-04-12T12:43:42.245Z,25.81
2023-04-12T12:44:42.190Z,25.79
2023-04-12T12:45:42.126Z,25.77
2023-04-12T12:47:42.026Z,25.78
2023-04-12T12:48:41.997Z,25.75
2023-04-12T12:49:41.846Z,25.77
2023-04-12T12:50:41.760Z,25.74
2023-04-12T12:51:41.691Z,25.75
2023-04-12T12:52:41.616Z,25.77
2023-04-12T12:53:41.558Z,25.75
2023-04-12T12:54:42.005Z,25.75